Weather History for Marshall, MN

Change the Weather History Date:

Monday, November 19, 2012

  Actual Average Record
Temperature  
Mean Temperature 45 °F -  
Max Temperature 55 °F 36 °F 63 °F (1989)
Min Temperature 32 °F 21 °F -2 °F (1986)
Degree Days  
Heating Degree Days 20    
Moisture  
Dew Point 34 °F    
Average Humidity 64    
Maximum Humidity 81    
Minimum Humidity 51    
Precipitation  
Precipitation 0.00 in - - ()
Sea Level Pressure  
Sea Level Pressure 30.01 in    
Wind  
Wind Speed 10 mph (WNW)    
Max Wind Speed 14 mph    
Max Gust Speed 16 mph    
Visibility 10 miles    
Events      
Averages and records for this station are not official NWS values.
T = Trace of Precipitation, MM = Missing Value Source: NWS Daily Summary

Daily Weather History Graph

Daily Weather History Graph

Search for Another Location

Airport:

Trip Planner

Search our weather history database for the weather conditions in past years. The results will help you decide how hot, cold, wet, or windy it might be!

Date:

Astronomy

Nov. 19, 2012 Rise Set
Actual Time 7:25 AM CST 4:51 PM CST
Civil Twilight 6:53 AM CST 5:23 PM CST
Nautical Twilight 6:18 AM CST 5:59 PM CST
Astronomical Twilight 5:43 AM CST 6:33 PM CST
Moon 12:23 PM CST (11/19) 11:26 PM CST (11/19)
Length of Visible Light 10h 30m
Length of Day
9h 26m
Waxing Crescent, 41% of the Moon is Illuminated
Nov 19
Waxing Crescent
Nov 20
First Quarter
Nov 28
Full
Dec 6
Last Quarter
Dec 13
New

Hourly Weather History & Observations

Time (CST) Temp. Windchill Dew Point Humidity Pressure Visibility Wind Dir Wind Speed Gust Speed Precip Events Conditions
12:15 AM 48.2 °F - 33.8 °F 58% 29.97 in 10.0 mi South 13.8 mph - N/A   Clear
12:35 AM 48.2 °F - 33.8 °F 58% 29.96 in 10.0 mi South 13.8 mph - N/A   Clear
12:55 AM 46.4 °F 41.1 °F 33.8 °F 62% 29.96 in 10.0 mi SSE 11.5 mph - N/A   Clear
1:15 AM 46.4 °F 40.7 °F 33.8 °F 62% 29.95 in 10.0 mi SSE 12.7 mph - N/A   Clear
1:35 AM 44.6 °F 39.2 °F 33.8 °F 66% 29.95 in 10.0 mi SSE 10.4 mph - N/A   Clear
1:55 AM 44.6 °F 39.7 °F 33.8 °F 66% 29.95 in 10.0 mi SSE 9.2 mph - N/A   Clear
2:15 AM 44.6 °F 40.2 °F 33.8 °F 66% 29.95 in 10.0 mi SSE 8.1 mph - N/A   Clear
2:35 AM 44.6 °F 39.7 °F 33.8 °F 66% 29.94 in 10.0 mi SSE 9.2 mph - N/A   Clear
2:55 AM 44.6 °F 39.7 °F 33.8 °F 66% 29.95 in 10.0 mi SSE 9.2 mph - N/A   Clear
3:15 AM 44.6 °F 40.2 °F 33.8 °F 66% 29.95 in 10.0 mi SE 8.1 mph - N/A   Clear
3:35 AM 44.6 °F 40.7 °F 33.8 °F 66% 29.95 in 10.0 mi SSE 6.9 mph - N/A   Clear
3:55 AM 44.6 °F 39.7 °F 33.8 °F 66% 29.95 in 10.0 mi SSE 9.2 mph - N/A   Clear
4:15 AM 44.6 °F 38.4 °F 33.8 °F 66% 29.94 in 10.0 mi South 12.7 mph - N/A   Clear
4:35 AM 44.6 °F 39.2 °F 33.8 °F 66% 29.94 in 10.0 mi SSE 10.4 mph - N/A   Clear
4:55 AM 42.8 °F 37.5 °F 33.8 °F 70% 29.95 in 10.0 mi SSE 9.2 mph - N/A   Clear
5:15 AM 42.8 °F 37.5 °F 33.8 °F 70% 29.95 in 10.0 mi SSE 9.2 mph - N/A   Clear
5:35 AM 44.6 °F 40.2 °F 33.8 °F 66% 29.95 in 10.0 mi SSE 8.1 mph - N/A   Clear
5:55 AM 42.8 °F 36.6 °F 33.8 °F 70% 29.95 in 10.0 mi SSE 11.5 mph - N/A   Clear
6:15 AM 42.8 °F 37.5 °F 33.8 °F 70% 29.95 in 10.0 mi SSE 9.2 mph - N/A   Clear
6:35 AM 42.8 °F 37.5 °F 33.8 °F 70% 29.95 in 10.0 mi South 9.2 mph - N/A   Clear
6:55 AM 42.8 °F 37.0 °F 33.8 °F 70% 29.95 in 10.0 mi South 10.4 mph - N/A   Clear
7:35 AM 41.0 °F 35.8 °F 33.8 °F 76% 29.96 in 10.0 mi South 8.1 mph - N/A   Clear
7:55 AM 41.0 °F 36.4 °F 33.8 °F 76% 29.97 in 10.0 mi South 6.9 mph - N/A   Clear
8:15 AM 42.8 °F 37.5 °F 33.8 °F 70% 29.97 in 10.0 mi SSW 9.2 mph - N/A   Clear
8:35 AM 42.8 °F 38.6 °F 33.8 °F 70% 29.97 in 10.0 mi South 6.9 mph - N/A   Clear
8:55 AM 44.6 °F 40.7 °F 35.6 °F 71% 29.97 in 10.0 mi SW 6.9 mph - N/A   Clear
9:15 AM 46.4 °F 42.9 °F 35.6 °F 66% 29.98 in 10.0 mi SSW 6.9 mph - N/A   Clear
9:35 AM 48.2 °F - 35.6 °F 62% 29.99 in 10.0 mi WSW 5.8 mph - N/A   Clear
9:55 AM 48.2 °F - 35.6 °F 62% 29.99 in 10.0 mi WSW 8.1 mph - N/A   Clear
10:15 AM 51.8 °F - 35.6 °F 54% 30.00 in 10.0 mi WSW 10.4 mph - N/A   Clear
10:35 AM 51.8 °F - 35.6 °F 54% 30.00 in 10.0 mi West 9.2 mph - N/A   Clear
10:55 AM 51.8 °F - 35.6 °F 54% 30.00 in 10.0 mi WNW 10.4 mph - N/A   Clear
11:15 AM 51.8 °F - 37.4 °F 58% 30.00 in 10.0 mi WNW 8.1 mph - N/A   Clear
11:35 AM 53.6 °F - 35.6 °F 51% 29.99 in 10.0 mi WNW 8.1 mph - N/A   Clear
11:55 AM 53.6 °F - 37.4 °F 54% 29.99 in 10.0 mi NNW 8.1 mph - N/A   Clear
12:15 PM 53.6 °F - 37.4 °F 54% 29.98 in 10.0 mi North 4.6 mph - N/A   Clear
12:35 PM 53.6 °F - 37.4 °F 54% 29.98 in 10.0 mi North 5.8 mph - N/A   Clear
12:55 PM 53.6 °F - 37.4 °F 54% 29.99 in 10.0 mi NW 8.1 mph - N/A   Clear
1:15 PM 55.4 °F - 37.4 °F 51% 29.98 in 10.0 mi NNW 10.4 mph - N/A   Clear
1:35 PM 55.4 °F - 37.4 °F 51% 29.99 in 10.0 mi NW 8.1 mph - N/A   Clear
1:55 PM 55.4 °F - 37.4 °F 51% 29.99 in 10.0 mi NNW 5.8 mph - N/A   Clear
2:15 PM 55.4 °F - 37.4 °F 51% 29.99 in 10.0 mi NNW 10.4 mph - N/A   Clear
2:35 PM 55.4 °F - 37.4 °F 51% 30.00 in 10.0 mi NNW 10.4 mph - N/A   Clear
2:55 PM 55.4 °F - 37.4 °F 51% 30.01 in 10.0 mi NW 8.1 mph - N/A   Clear
3:15 PM 55.4 °F - 37.4 °F 51% 30.01 in 10.0 mi NNW 9.2 mph 16.1 mph N/A   Clear
3:35 PM 55.4 °F - 37.4 °F 51% 30.01 in 10.0 mi NNW 10.4 mph - N/A   Clear
3:55 PM 53.6 °F - 37.4 °F 54% 30.02 in 10.0 mi North 10.4 mph - N/A   Clear
4:15 PM 53.6 °F - 37.4 °F 54% 30.03 in 10.0 mi NNW 9.2 mph - N/A   Clear
4:35 PM 51.8 °F - 37.4 °F 58% 30.03 in 10.0 mi NNW 10.4 mph - N/A   Clear
4:55 PM 50.0 °F - 35.6 °F 58% 30.04 in 10.0 mi NNW 10.4 mph - N/A   Clear
5:15 PM 48.2 °F - 35.6 °F 62% 30.05 in 10.0 mi NNW 10.4 mph - N/A   Clear
5:35 PM 48.2 °F - 35.6 °F 62% 30.05 in 10.0 mi NNW 10.4 mph - N/A   Clear
5:55 PM 46.4 °F 41.5 °F 35.6 °F 66% 30.06 in 10.0 mi NNW 10.4 mph - N/A   Clear
6:15 PM 44.6 °F 38.8 °F 35.6 °F 71% 30.07 in 10.0 mi NNW 11.5 mph - N/A   Clear
6:35 PM 44.6 °F 39.2 °F 35.6 °F 71% 30.08 in 10.0 mi NNW 10.4 mph - N/A   Clear
6:55 PM 44.6 °F 38.8 °F 35.6 °F 71% 30.09 in 10.0 mi NW 11.5 mph - N/A   Clear
7:15 PM 44.6 °F 39.7 °F 35.6 °F 71% 30.08 in 10.0 mi NNW 9.2 mph - N/A   Clear
7:35 PM 44.6 °F 39.7 °F 35.6 °F 71% 30.09 in 10.0 mi NW 9.2 mph - N/A   Partly Cloudy
7:55 PM 44.6 °F 40.2 °F 33.8 °F 66% 30.09 in 10.0 mi NNW 8.1 mph - N/A   Partly Cloudy
8:15 PM 41.0 °F 34.3 °F 32.0 °F 70% 30.10 in 10.0 mi NW 11.5 mph - N/A   Clear
8:35 PM 39.2 °F 33.0 °F 32.0 °F 75% 30.10 in 10.0 mi NW 9.2 mph - N/A   Clear
8:55 PM 39.2 °F 33.0 °F 32.0 °F 75% 30.10 in 10.0 mi NW 9.2 mph - N/A   Partly Cloudy
9:15 PM 37.4 °F 30.8 °F 30.2 °F 75% 30.11 in 10.0 mi WNW 9.2 mph - N/A   Clear
9:35 PM 35.6 °F 28.6 °F 30.2 °F 81% 30.11 in 10.0 mi NW 9.2 mph - N/A   Clear
9:55 PM 37.4 °F 30.8 °F 30.2 °F 75% 30.12 in 10.0 mi NW 9.2 mph - N/A   Clear
10:15 PM 37.4 °F 29.3 °F 30.2 °F 75% 30.12 in 10.0 mi NW 12.7 mph - N/A   Clear
10:35 PM 37.4 °F 29.8 °F 30.2 °F 75% 30.12 in 10.0 mi NNW 11.5 mph - N/A   Clear
10:55 PM 37.4 °F 30.8 °F 30.2 °F 75% 30.12 in 10.0 mi NW 9.2 mph - N/A   Clear
11:15 PM 35.6 °F 29.9 °F 28.4 °F 75% 30.13 in 10.0 mi NW 6.9 mph - N/A   Clear
11:35 PM 35.6 °F 29.2 °F 28.4 °F 75% 30.13 in 10.0 mi NW 8.1 mph - N/A   Clear
11:55 PM 32.0 °F 24.8 °F 26.6 °F 80% 30.13 in 10.0 mi NW 8.1 mph - N/A   Clear